Arthur Freitas

Scout - Bragantino
19 Aug 2027
Donnerstag
Verarbeitung

Persönlichkeit

Anpassungsfähigkeit (9) Ehrgeiz (6) Kontroverse (16) Loyalität (10) Druck (12) Professionalität (16) Fairness (10) Temperament (18)

Profil

Trainerstil Demokratisch
Lizenz Kontinentale C
Entschlossenheit 11
Menschenführung 9
Motivation 5
Disziplin 14
Arbeitszufriedenheit
61%
Ermüdung
0%
Rolle Scout
Gehalt 60.9K p/W
Vertrag 14.03.2029

Leistung

Verhalten Gut
Trainingseffektivität
30%
Spielerentwicklung
55%
Verletzungsprävention
65%
Taktische Umsetzung
60%

Letzte Ereignisse

Nahm an einer Scouting-Besprechung teil jetzt
Nahm an einer Scouting-Besprechung teil 7T her
Empfahl ein Transferziel 7T her
Nahm an einer Scouting-Besprechung teil 14T her
Empfahl ein Transferziel 14T her
Nahm an einer Scouting-Besprechung teil 21T her
Empfahl ein Transferziel 21T her
Geburtstag 28T her

Aktuell beobachtet

203
Spieler Verein Status Fähigkeit Vertrauen Beobachtet Zuletzt beobachtet Letzte Stimme
Fredi Bahia Aktiv 108 / 108 72% 1 12.07.2027 Befürworten
Bento Al-Nassr Aktiv 139 / 124 40% 1 31.05.2027 Mehr Infos nötig
Thomas De Bruyne Mouscron Aktiv 117 / 137 40% 1 31.05.2027 -
Matteo Rizzo Cosenza Aktiv 108 / 105 40% 1 31.05.2027 -
Hector Ramirez Newcastle United Aktiv 157 / 152 40% 2 30.05.2027 -
Teden Mengi Luton Town Aktiv 117 / 119 40% 1 30.05.2027 -
Giacomo Raspadori Atalanta Aktiv 158 / 136 40% 2 28.05.2027 -
Morgan Whittaker Middlesbrough Aktiv 143 / 137 40% 1 28.05.2027 -
Jacob Ramsey Newcastle United Aktiv 144 / 143 40% 3 27.05.2027 -
Anton Stach Leeds United Aktiv 155 / 156 40% 1 27.05.2027 -
Adrien Truffert Bournemouth Aktiv 160 / 147 40% 1 27.05.2027 -
Léo Scienza Southampton Aktiv 141 / 126 40% 2 25.05.2027 -
Manu Koné AS Roma Aktiv 166 / 169 40% 1 25.05.2027 -
Tyler Adams Bournemouth Aktiv 161 / 145 40% 1 25.05.2027 -
Zaïd BafdilI Sporting CP Aktiv 83 / 106 40% 6 24.05.2027 -
Leandro Martins Benfica Aktiv 91 / 107 40% 3 24.05.2027 -
Gonçalo Oliveira Benfica Aktiv 115 / 122 40% 2 24.05.2027 -
Callum Hudson-Odoi Nottingham Forest Aktiv 151 / 160 40% 1 24.05.2027 -
Mats Wieffer Brighton Aktiv 148 / 150 40% 3 22.05.2027 -
Sorba Thomas Stoke City Aktiv 124 / 138 40% 1 22.05.2027 -
Ethan Galbraith Swansea City Aktiv 137 / 143 40% 1 22.05.2027 -
Marcus Edwards Burnley Aktiv 142 / 143 40% 2 21.05.2027 -
David Brooks Bournemouth Aktiv 150 / 142 40% 1 21.05.2027 -
Yehor Yarmoliuk Brentford Aktiv 155 / 160 40% 2 20.05.2027 -
Nico González Newcastle United Aktiv 164 / 171 40% 1 20.05.2027 -
Leif Davis Ipswich Town Aktiv 129 / 137 40% 1 20.05.2027 -
Malick Thiaw West Ham United Aktiv 152 / 158 40% 1 18.05.2027 Mehr Infos nötig
Adam Randell Bristol City Aktiv 125 / 132 40% 1 18.05.2027 -
Juanlu Bournemouth Aktiv 148 / 159 40% 1 18.05.2027 -
Kazunari Kita Real Sociedad Aktiv 89 / 115 40% 2 17.05.2027 -
Sascha Britschgi Padova Aktiv 124 / 127 40% 1 17.05.2027 -
Darryl Bakola Padova Aktiv 104 / 120 40% 1 17.05.2027 -
Assane Diao Lazio Aktiv 152 / 151 40% 1 17.05.2027 -
Nicolas Jackson Aston Villa Aktiv 148 / 146 40% 1 17.05.2027 -
Kiernan Dewsbury-Hall Everton Aktiv 145 / 146 40% 1 16.05.2027 -
Dennis Cirkin Queens Park Rangers Aktiv 131 / 125 40% 2 14.05.2027 -
Jake O'Brien Everton Aktiv 153 / 142 40% 2 14.05.2027 -
Sven Botman Newcastle United Aktiv 164 / 167 40% 1 14.05.2027 -
Amine Adli Bournemouth Aktiv 139 / 142 40% 1 13.05.2027 -
Carlos Vicente Birmingham Aktiv 150 / 151 40% 1 13.05.2027 Mehr Infos nötig
Eduardo Felicíssimo Sporting CP Aktiv 110 / 115 40% 4 12.05.2027 -
Yussif Saidu Zaragoza Aktiv 122 / 136 40% 3 12.05.2027 -
Amadou Onana Aston Villa Aktiv 148 / 151 40% 2 12.05.2027 -
Boubacar Kamara Aston Villa Aktiv 172 / 168 40% 1 11.05.2027 -
James Garner Everton Aktiv 147 / 145 40% 1 11.05.2027 -
Nicolò Rovella Lazio Aktiv 162 / 141 40% 1 11.05.2027 -
Jacques Ekomié Wrexham Aktiv 138 / 122 40% 3 09.05.2027 -
Welington Southampton Aktiv 123 / 133 40% 1 09.05.2027 -
Christos Mouzakitis Hull City Aktiv 128 / 131 40% 1 09.05.2027 -
Tom Fellows Southampton Aktiv 142 / 129 40% 2 07.05.2027 -
Murillo Nottingham Forest Aktiv 152 / 146 40% 1 07.05.2027 -
Sidny Lopes Cabral Trabzonspor Aktiv 130 / 127 40% 1 07.05.2027 -
Ilyas Ansah Hull City Aktiv 123 / 136 40% 4 03.05.2027 -
Georginio Rutter Brighton Aktiv 151 / 154 40% 1 03.05.2027 -
Mikkel Damsgaard Brentford Aktiv 145 / 148 40% 2 02.05.2027 -
Donyell Malen AS Roma Aktiv 152 / 153 40% 1 01.05.2027 -
Ryan Sessegnon Fulham Aktiv 158 / 157 40% 1 01.05.2027 -
Afonso Assis Moreirense Aktiv 110 / 127 40% 6 30.04.2027 -
Matías Gómez Granada Aktiv 118 / 125 40% 3 30.04.2027 -
Bernardo Lima Porto Aktiv 106 / 110 40% 2 30.04.2027 -
Ronwen Phiri Platinum Stars Aktiv 87 / 104 40% 1 29.04.2027 -
Christ Inao Oulaï Fiorentina Aktiv 134 / 129 40% 1 29.04.2027 -
Carlos Alcaraz Everton Aktiv 142 / 146 40% 1 27.04.2027 -
Dango Ouattara Brentford Aktiv 147 / 148 40% 1 27.04.2027 -
Luís Henrique Inter Aktiv 146 / 146 40% 1 26.04.2027 -
Borja Sainz Fiorentina Aktiv 148 / 142 40% 1 26.04.2027 -
Roberto Fernández Braga Aktiv 142 / 139 40% 2 25.04.2027 -
Kevin Vazquez Cruz Azul Aktiv 128 / 151 40% 3 23.04.2027 -
Martim Fernandes Porto Aktiv 144 / 145 40% 3 23.04.2027 -
Caleb Yirenkyi Coventry City Aktiv 145 / 145 40% 4 22.04.2027 -
Tomás Araújo Benfica Aktiv 153 / 155 40% 3 20.04.2027 -
Alberto Costa Porto Aktiv 150 / 148 40% 2 19.04.2027 -
Ibrahim Maza Bayer Leverkusen Aktiv 155 / 148 40% 2 19.04.2027 -
Pau Víctor AVS Aktiv 145 / 131 40% 1 19.04.2027 -
Valery Académico de Viseu Aktiv 128 / 130 40% 3 14.04.2027 -
Jan Bürger Gillingham Aktiv 121 / 118 40% 1 14.04.2027 -
Luke McNally Bristol City Aktiv 129 / 123 40% 1 14.04.2027 -
Francisco Moura Lusitânia Lourosa Aktiv 129 / 132 40% 2 12.04.2027 -
Soungoutou Magassa West Ham United Aktiv 127 / 142 40% 1 12.04.2027 -
José Neto Moreirense Aktiv 116 / 116 40% 2 10.04.2027 -
João Simões Sporting CP Aktiv 133 / 150 40% 4 08.04.2027 -
Noah Sadiki Sunderland Aktiv 142 / 158 40% 1 08.04.2027 -
Ramón Juárez Club America Aktiv 143 / 135 40% 1 08.04.2027 -
Ernie Weaver AFC Wimbledon Aktiv 106 / 110 40% 4 06.04.2027 -
Omar Campos Cruz Azul Aktiv 139 / 136 40% 2 06.04.2027 -
Keagan Tau Ajax Cape Town Aktiv 85 / 97 40% 3 06.04.2027 -
Richard Ledezma Guadalajara Aktiv 132 / 129 40% 1 06.04.2027 -
Riley Owen Trento Aktiv 96 / 95 40% 1 06.04.2027 -
Daniel Vernattus Metalist Aktiv 93 / 104 40% 2 05.04.2027 -
Martim Cunha Porto Aktiv 88 / 104 40% 2 05.04.2027 -
Davide Bartesaghi AC Milan Aktiv 133 / 137 40% 1 01.04.2027 -
Derry Murkin Derby County Aktiv 130 / 134 40% 1 01.04.2027 -
Tariq Lamptey Queens Park Rangers Aktiv 128 / 146 40% 1 30.03.2027 -
Harry Clarke Preston Aktiv 118 / 136 40% 1 30.03.2027 -
Milan van Ewijk Mansfield Town Aktiv 123 / 127 40% 1 30.03.2027 -
Oumar Solet Udinese Aktiv 139 / 157 40% 1 28.03.2027 -
Jofre Torrents Ajax Aktiv 133 / 139 40% 2 27.03.2027 -
Amadou Niang Al Ain Aktiv 109 / 128 40% 1 26.03.2027 -
James Dornelly Peterborough United Aktiv 96 / 112 40% 2 24.03.2027 -
Percy Jali Free State Stars Aktiv 100 / 87 40% 1 24.03.2027 -
Khalis Merah Toulouse FC Aktiv 118 / 118 40% 2 23.03.2027 -
David Ozoh Derby County Aktiv 122 / 135 40% 1 22.03.2027 -
Gonçalo Inácio Sporting CP Aktiv 155 / 151 40% 2 21.03.2027 -
Shea Charles Southampton Aktiv 146 / 146 40% 1 21.03.2027 -
Andrea Carboni Monza Aktiv 140 / 133 40% 1 21.03.2027 -
Iván Fresneda Sporting CP Aktiv 137 / 139 40% 3 20.03.2027 -
Aidan Morris Middlesbrough Aktiv 130 / 136 40% 1 19.03.2027 -
Christian Krasnodar Aktiv 147 / 144 40% 1 19.03.2027 -
Lewis Ferguson Bologna Aktiv 147 / 152 40% 1 18.03.2027 -
Sergi Altimira Sporting CP Aktiv 140 / 140 40% 1 18.03.2027 -
Toby Collyer West Bromwich Albion Aktiv 133 / 124 40% 1 17.03.2027 -
Daniel Costa Sporting CP Aktiv 96 / 109 40% 1 16.03.2027 -
Victor Froholdt Porto Aktiv 143 / 163 40% 2 24.02.2027 Mehr Infos nötig
Dylan Lawlor Cardiff City Aktiv 105 / 129 40% 1 17.02.2027 -
Breno Bidon Corinthians Aktiv 124 / 139 40% 1 05.02.2027 -
Bastien Meupiyou Alverca Aktiv 125 / 112 40% 1 01.02.2027 -
Oliver Skipp Leicester City Aktiv 134 / 137 40% 1 30.11.2026 -
Taichi Fukui Arouca Aktiv 122 / 137 40% 1 30.11.2026 -
Leo Castledine Middlesbrough Aktiv 125 / 118 40% 5 29.11.2026 -
Matías Fernández-Pardo Newcastle United Aktiv 145 / 142 40% 4 29.11.2026 -
Facundo Colidio Vasco da Gama Aktiv 138 / 122 40% 2 28.11.2026 -
Vinícius Lopes Santa Clara Aktiv 135 / 132 40% 4 27.11.2026 -
Gustavo Silva Vitoria Guimaraes Aktiv 124 / 120 40% 3 27.11.2026 -
Ianis Stoica Estrela da Amadora Aktiv 103 / 109 40% 2 26.11.2026 -
Dodi Lukébakio Benfica Aktiv 143 / 130 40% 1 26.11.2026 -
Zé Leite Leixões Aktiv 107 / 115 40% 3 25.11.2026 -
Arthur Cabral Botafogo Aktiv 120 / 122 40% 2 25.11.2026 -
Carlos Vinícius Grêmio Aktiv 133 / 144 40% 1 25.11.2026 -
Fotis Ioannidis Rio Ave Aktiv 134 / 137 40% 4 24.11.2026 -
Peter Shalulile Mamelodi Sundowns Aktiv 143 / 118 40% 2 24.11.2026 -
Roméo Beney Famalicao Aktiv 110 / 104 40% 2 23.11.2026 -
Senny Mayulu Paris Saint-Germain Aktiv 136 / 162 40% 1 23.11.2026 -
Martín Tejón Maritimo Aktiv 107 / 124 40% 2 21.11.2026 -
Negueba Mirassol Aktiv 121 / 129 40% 1 21.11.2026 -
Ricardo Horta Braga Aktiv 135 / 139 40% 1 20.11.2026 -
Pedro Raul Corinthians Aktiv 128 / 122 40% 1 20.11.2026 -
Kelian Baruti Liamba Estoril Praia Aktiv 84 / 85 40% 3 19.11.2026 -
Jalen Blesa Rio Ave Aktiv 122 / 128 40% 1 17.11.2026 -
Mateo Cassierra Atlético Mineiro Aktiv 132 / 122 40% 1 16.11.2026 -
Alfonso Trezza Arouca Aktiv 118 / 108 40% 3 13.11.2026 -
Agustín Ruberto River Plate Aktiv 113 / 122 40% 2 13.11.2026 -
Gabriel Jesus Barcelona Aktiv 152 / 163 40% 2 11.11.2026 -
Jonathan Calleri Sport Recife Aktiv 141 / 145 40% 1 11.11.2026 Mehr Infos nötig
Neymar Santos Aktiv 155 / 138 40% 1 11.11.2026 -
Rocco Vata Watford Aktiv 133 / 122 40% 2 09.11.2026 -
Paulo Moreira Farense Aktiv 119 / 130 40% 2 09.11.2026 -
Alan Varela Porto Aktiv 154 / 135 40% 1 09.11.2026 -
Will Lankshear Middlesbrough Aktiv 129 / 136 40% 2 08.11.2026 -
Sidiki Chérif Coventry City Aktiv 116 / 141 40% 1 08.11.2026 -
Kasra Taheri Sepahan Aktiv 117 / 110 40% 1 08.11.2026 -
Víctor Guzmán Sporting CP Aktiv 82 / 105 40% 2 05.11.2026 -
Figueiredo Alverca Aktiv 125 / 113 40% 3 04.11.2026 -
Ozziel Herrera Tigres Aktiv 139 / 111 40% 1 04.11.2026 -
André Silva Tondela Aktiv 138 / 126 40% 2 03.11.2026 -
Lewis Morgan SuperSport United Aktiv 137 / 113 40% 2 02.11.2026 -
Rayan Bournemouth Aktiv 128 / 128 40% 3 30.10.2026 -
Marezi Portsmouth Aktiv 114 / 110 40% 1 30.10.2026 -
Guilherme Neiva AVS Aktiv 95 / 103 40% 1 30.10.2026 -
Zeno Debast Sporting CP Aktiv 148 / 141 40% 1 29.10.2026 -
Dara O'Shea Ipswich Town Aktiv 128 / 123 40% 1 29.10.2026 -
Sikou Niakaté Braga Aktiv 138 / 143 40% 1 29.10.2026 -
Gabriel Veron Porto Aktiv 138 / 131 40% 3 27.10.2026 -
Samu Aghehowa AS Roma Aktiv 140 / 139 40% 2 27.10.2026 -
Korede Osundina Casa Pia Aktiv 103 / 123 40% 1 27.10.2026 -
Francisco Álvarez Argentinos Juniors Aktiv 127 / 127 40% 1 27.10.2026 -
André Lacximicant Estoril Praia Aktiv 125 / 111 40% 1 25.10.2026 -
Heung-Min Son Los Angeles Football Club Aktiv 148 / 144 40% 1 23.10.2026 -
Kévin Denkey FC Cincinnati Aktiv 135 / 122 40% 1 19.10.2026 -
Vangelis Pavlidis Twente Aktiv 142 / 151 40% 1 18.10.2026 -
Pedro Flamengo Aktiv 134 / 149 40% 1 17.10.2026 -
Dawda Camara Alverca Aktiv 131 / 127 40% 2 16.10.2026 -
Tommy Conway Middlesbrough Aktiv 115 / 117 40% 1 16.10.2026 -
Jonás Luna Santa Clara Aktiv 112 / 120 40% 3 15.10.2026 -
Markus Jensen Nacional Aktiv 100 / 115 40% 2 14.10.2026 -
Dylan Cabral Arsenal Aktiv 92 / 109 40% 1 13.10.2026 -
Youssoufa Moukoko FC Copenhagen Aktiv 124 / 143 40% 1 13.10.2026 -
Santiago González Tigre Aktiv 124 / 130 40% 1 11.10.2026 -
Rafael Navarro St. Louis CITY SC Aktiv 122 / 136 40% 1 10.10.2026 -
Florentino Luís Ipswich Town Aktiv 148 / 140 40% 1 08.10.2026 -
Juan Pablo Freytes Fluminense Aktiv 134 / 130 40% 1 08.10.2026 -
Kevin Álvarez Club America Aktiv 132 / 135 40% 1 07.10.2026 -
Archie Goodwin Charlotte Football Club Aktiv 117 / 107 40% 1 02.10.2026 -
Adnan Courtois KV Oostende Aktiv 138 / 120 40% 1 29.09.2026 -
Fally Mayulu Arouca Aktiv 104 / 126 40% 1 29.09.2026 -
Francesco Pio Esposito Inter Aktiv 135 / 136 40% 1 20.09.2026 -
Ousmane Diomande Nottingham Forest Aktiv 155 / 140 40% 1 18.09.2026 -
Léo Jacó Santa Clara Aktiv 91 / 88 40% 2 17.09.2026 -
Darren Yapi Colorado Rapids Aktiv 103 / 116 40% 1 17.09.2026 -
Jovan Milošević Braga Aktiv 120 / 116 40% 3 15.09.2026 -
Renzo Machado Liverpool Montevideo Aktiv 112 / 126 40% 1 12.09.2026 -
Mathis Jangeal Famalicao Aktiv 85 / 97 40% 1 10.09.2026 -
José Manuel López Palmeiras Aktiv 141 / 145 40% 1 09.09.2026 -
Tadeo Allende Inter Miami CF Aktiv 116 / 122 40% 1 09.09.2026 -
Dilan Godoy Vélez Aktiv 104 / 114 40% 2 08.09.2026 -
Luca Koleosho Paris FC Aktiv 122 / 134 40% 1 07.09.2026 -
Rudi Almeida Famalicao Aktiv 83 / 80 40% 1 28.08.2026 -
Toni Tamarit Alverca Aktiv 125 / 118 40% 1 27.08.2026 -
Mateus Mané Manchester United Aktiv 133 / 123 40% 1 16.08.2026 -
Luciano Inverso Rentistas Aktiv 107 / 117 40% 1 15.08.2026 -
Lucas Agazzi Defensor Sporting Aktiv 113 / 122 40% 1 03.08.2026 -
Stefanos Tzimas Brighton Aktiv 134 / 128 40% 1 03.08.2026 -
Tiago Freitas Benfica Aktiv 115 / 102 40% 1 01.08.2026 -
Yeimar Mosquera Vitoria Guimaraes Aktiv 110 / 100 40% 1 01.08.2026 -